Terminal Aerodrome Forecast
Issued by NWS

Home | Current Version | Previous Version | Text Only | Print | Product List | Glossary On
Versions: 1 2 3 4 5 6 7 8 9 10 11 12 13 14 15 16 17 18 19 20 21 22 23 24 25 26
086
FTUS44 KFWD 291739
TAFAFW
TAF
KAFW 291739Z 2918/3018 19014G24KT P6SM BKN045
     FM291830 20014KT P6SM VCTS BKN045CB
      TEMPO 2919/2921 30020G32KT 3SM TSRA OVC025CB
     FM292100 32014KT P6SM BKN070
     FM300800 28015KT P6SM SHRA VCTS SCT030 BKN080CB
     FM301200 28017KT P6SM SCT030 BKN100
     FM301500 28018G28KT P6SM SCT040=

USA.gov is the U.S. government's official web portal to all federal, state and local government web resources and services.